Weather observations for the past three days for
Grantley Adams International Airport
Imperial (Metric)
Date Time (ast) Wind (mph) Vis. (mi.) Weather Sky Cond. Temperature (ºF) Relative Humidity Wind Chill (°F) Heat Index (°F) Pressure Precipitation (in)
Air Dwpt 6 hour altimeter (in) sea level (mb) 1 hr 3 hr 6 hr
Max. Min.
01 23:00 E 14 0.00 Partly Cloudy SCT018 82.4 75.2 79% 89 0 0.0
01 22:00 E 10 0.00 A Few Clouds FEW018 82.4 75.2 79% 89 0 0.0
01 21:00 E 14 0.00 Showers in Vicinity SCT016 82.4 75.2 79% 89 0 0.0
01 20:00 E 14 0.00 Light Showers Rain Showers in Vicinity SCT016 82.4 77 84% 91 0 0.0
01 19:00 E 12 0.00 A Few Clouds FEW020 82.4 75.2 79% 89 0 0.0
01 18:00 E 12 0.00 A Few Clouds FEW020 82.4 75.2 79% 89 0 0.0
01 17:00 E 15 0.00 A Few Clouds FEW020 84.2 75.2 74% 92 0 0.0
01 16:00 E 14 0.00 A Few Clouds FEW020 86 75.2 70% 95 0 0.0
01 15:00 SE 14 0.00 A Few Clouds FEW020 86 77 75% 97 0 0.0
01 14:00 SE 13 0.00 Partly Cloudy SCT018 86 78.8 79% 99 0 0.0
01 13:00 E 13 0.00 Partly Cloudy SCT018 87.8 77 70% 100 0 0.0
01 12:00 E 13 0.00 Partly Cloudy SCT018 86 77 75% 97 0 0.0
01 11:00 E 13 0.00 Partly Cloudy SCT018 86 77 75% 97 0 0.0
01 10:00 E 14 0.00 Partly Cloudy SCT018 86 77 75% 97 0 0.0
01 09:00 E 14 0.00 Mostly Cloudy BKN018 86 77 75% 97 0 0.0
01 08:00 E 13 0.00 Partly Cloudy SCT018 84.2 77 79% 94 0 0.0
01 07:00 E 14 0.00 Partly Cloudy SCT018 82.4 75.2 79% 89 0 0.0
01 06:00 E 14 0.00 Partly Cloudy SCT018 80.6 75.2 84% 86 0 0.0
01 05:00 E 17 0.00 Partly Cloudy SCT018 80.6 75.2 84% 86 0 0.0
01 04:00 E 16 0.00 A Few Clouds FEW018 80.6 75.2 84% 86 0 0.0
01 03:00 E 15 0.00 Partly Cloudy SCT018 80.6 75.2 84% 86 0 0.0
01 02:00 E 13 0.00 Partly Cloudy SCT018 82.4 75.2 79% 89 0 0.0
01 01:00 E 13 0.00 Partly Cloudy SCT018 82.4 75.2 79% 89 0 0.0
01 00:00 E 14 0.00 A Few Clouds FEW018 82.4 75.2 79% 89 0 0.0
31 23:00 E 13 0.00 Partly Cloudy SCT018 82.4 77 84% 91 0 0.0
31 22:00 E 14 0.00 Partly Cloudy SCT018 82.4 77 84% 91 0 0.0
31 21:00 E 17 0.00 Partly Cloudy SCT018 82.4 77 84% 91 0 0.0
31 20:00 E 16 0.00 Partly Cloudy SCT018 82.4 77 84% 91 0 0.0
31 19:00 E 15 0.00 A Few Clouds FEW018 82.4 77 84% 91 0 0.0
31 17:00 E 20 0.00 A Few Clouds FEW020 84.2 77 79% 94 0 0.0
31 16:00 E 21 0.00 A Few Clouds and Breezy FEW020 86 77 75% 97 0 0.0
31 15:00 E 22 0.00 A Few Clouds and Breezy FEW020 86 77 75% 97 0 0.0
31 14:00 E 21 0.00 A Few Clouds and Breezy FEW020 87.8 78.8 75% 102 0 0.0
31 13:00 E 23 0.00 A Few Clouds and Breezy FEW020 87.8 77 70% 100 0 0.0
31 12:00 E 23 0.00 Partly Cloudy and Breezy SCT018 86 78.8 79% 99 0 0.0
31 11:00 E 21 0.00 Partly Cloudy and Breezy SCT018 87.8 78.8 75% 102 0 0.0
31 10:00 E 21 0.00 Partly Cloudy and Breezy SCT018 86 78.8 79% 99 0 0.0
31 09:00 E 20 0.00 Partly Cloudy FEW012CB SCT016 86 78.8 79% 99 0 0.0
31 08:00 E 21 0.00 Partly Cloudy and Breezy SCT018 84.2 77 79% 94 0 0.0
31 07:00 E 17 0.00 Partly Cloudy SCT018 82.4 77 84% 91 0 0.0
31 06:00 E 15 0.00 A Few Clouds FEW018 82.4 77 84% 91 0 0.0
31 05:00 E 17 0.00 Mostly Cloudy SCT018 BKN045 82.4 77 84% 91 0 0.0
31 04:00 E 21 0.00 Mostly Cloudy and Breezy SCT018 BKN045 82.4 77 84% 91 0 0.0
31 03:00 E 18 0.00 Partly Cloudy SCT018 SCT045 82.4 77 84% 91 0 0.0
31 02:00 E 20 0.00 Partly Cloudy FEW018 SCT045 82.4 77 84% 91 0 0.0
31 01:00 E 18 0.00 Partly Cloudy SCT018 SCT045 82.4 77 84% 91 0 0.0
31 00:00 E 20 0.00 Partly Cloudy SCT018 SCT045 82.4 77 84% 91 0 0.0
30 23:00 E 15 0.00 Partly Cloudy SCT018 SCT045 82.4 78.8 89% 92 0 0.0
30 22:00 E 14 0.00 Partly Cloudy SCT018 SCT045 82.4 77 84% 91 0 0.0
30 21:00 E 14 0.00 Partly Cloudy FEW018 SCT045 82.4 78.8 89% 92 0 0.0
30 20:00 E 12 0.00 Partly Cloudy FEW018 SCT045 82.4 77 84% 91 0 0.0
30 19:00 E 13 0.00 Partly Cloudy FEW016 SCT045 82.4 77 84% 91 0 0.0
30 18:00 E 10 0.00 Partly Cloudy FEW010CB SCT045 82.4 77 84% 91 0 0.0
30 17:00 E 18 0.00 Showers in Vicinity FEW010CB SCT016 84.2 78.8 84% 96 0 0.0
30 16:00 E 14 0.00 A Few Clouds FEW010CB 86 78.8 79% 99 0 0.0
30 15:00 SE 15 0.00 A Few Clouds FEW010CB 86 78.8 79% 99 0 0.0
30 14:00 E 21 0.00 A Few Clouds and Breezy FEW010CB 86 78.8 79% 99 0 0.0
30 13:00 SE 16 0.00 Showers in Vicinity SCT016 87.8 80.6 79% 105 0 0.0
30 12:00 S 13 0.00 Showers in Vicinity FEW010CB 86 80.6 84% 102 0 0.0
30 11:00 SE 18 0.00 Showers in Vicinity FEW010CB SCT016 86 78.8 79% 99 0 0.0
30 10:00 SE 17 0.00 Partly Cloudy SCT018 86 80.6 84% 102 0 0.0
30 09:00 SE 15 0.00 Partly Cloudy SCT018 86 78.8 79% 99 0 0.0
30 08:00 SE 14 0.00 A Few Clouds FEW016 84.2 78.8 84% 96 0 0.0
30 07:00 SE 14 0.00 Mostly Cloudy FEW016 BKN036 82.4 78.8 89% 92 0 0.0
30 06:00 SE 15 0.00 Showers in Vicinity FEW012CB SCT016 BKN036 82.4 78.8 89% 92 0 0.0
30 05:00 SE 13 0.00 Showers in Vicinity BKN016 BKN036 80.6 78.8 94% 88 0 0.0
30 04:00 SE 12 0.00 Showers in Vicinity SCT018 SCT036 82.4 78.8 89% 92 0 0.0
30 03:00 S 13 0.00 Partly Cloudy BKN018 SCT036 82.4 78.8 89% 92 0 0.0
30 02:00 S 10 0.00 Mostly Cloudy BKN018 82.4 78.8 89% 92 0 0.0
30 01:00 S 7 0.00 Mostly Cloudy FEW018 BKN036 82.4 78.8 89% 92 0 0.0
30 00:00 SE 7 0.00 Mostly Cloudy FEW018 BKN036 82.4 78.8 89% 92 0 0.0
Date Time (ast) Wind (mph) Vis. (mi.) Weather Sky Cond. Air Dwpt Max. Min. Relative Humidity Wind Chill (°F) Heat Index (°F) altimeter (in) sea level (mb) 1 hr 3 hr 6 hr
6 hour
Temperature (ºF) Pressure Precipitation (in)